sensor_id;sensor_type;location;lat;lon;timestamp;temperature;humidity
39931;DHT22;26635;-35.248;149.138;2023-02-15T00:01:38;24.00;61.50
39931;DHT22;26635;-35.248;149.138;2023-02-15T00:04:09;24.00;62.10
39931;DHT22;26635;-35.248;149.138;2023-02-15T00:06:42;24.10;61.10
39931;DHT22;26635;-35.248;149.138;2023-02-15T00:09:13;24.20;62.00
39931;DHT22;26635;-35.248;149.138;2023-02-15T00:11:43;24.30;61.80
39931;DHT22;26635;-35.248;149.138;2023-02-15T00:14:24;24.50;61.50
39931;DHT22;26635;-35.248;149.138;2023-02-15T00:16:55;24.80;60.10
39931;DHT22;26635;-35.248;149.138;2023-02-15T00:19:33;24.80;59.60
39931;DHT22;26635;-35.248;149.138;2023-02-15T00:22:04;24.90;59.10
39931;DHT22;26635;-35.248;149.138;2023-02-15T00:24:38;24.90;58.80
39931;DHT22;26635;-35.248;149.138;2023-02-15T00:27:11;25.00;58.90
39931;DHT22;26635;-35.248;149.138;2023-02-15T00:29:41;25.00;57.90
39931;DHT22;26635;-35.248;149.138;2023-02-15T00:32:12;25.10;57.80
39931;DHT22;26635;-35.248;149.138;2023-02-15T00:34:43;25.20;58.40
39931;DHT22;26635;-35.248;149.138;2023-02-15T00:37:13;25.30;59.30
39931;DHT22;26635;-35.248;149.138;2023-02-15T00:39:44;25.50;58.20
39931;DHT22;26635;-35.248;149.138;2023-02-15T00:42:17;25.50;57.80
39931;DHT22;26635;-35.248;149.138;2023-02-15T00:44:48;25.70;57.70
39931;DHT22;26635;-35.248;149.138;2023-02-15T00:47:19;25.70;56.70
39931;DHT22;26635;-35.248;149.138;2023-02-15T00:49:49;25.80;55.80
39931;DHT22;26635;-35.248;149.138;2023-02-15T00:52:27;25.90;56.90
39931;DHT22;26635;-35.248;149.138;2023-02-15T00:55:00;25.90;56.70
39931;DHT22;26635;-35.248;149.138;2023-02-15T00:57:31;26.10;56.60
39931;DHT22;26635;-35.248;149.138;2023-02-15T01:00:05;26.10;54.80
39931;DHT22;26635;-35.248;149.138;2023-02-15T01:03:20;26.20;55.30
39931;DHT22;26635;-35.248;149.138;2023-02-15T01:05:51;26.30;55.30
39931;DHT22;26635;-35.248;149.138;2023-02-15T01:08:25;26.30;56.10
39931;DHT22;26635;-35.248;149.138;2023-02-15T01:10:56;26.20;55.30
39931;DHT22;26635;-35.248;149.138;2023-02-15T01:13:26;26.20;56.30
39931;DHT22;26635;-35.248;149.138;2023-02-15T01:15:57;26.40;55.50
39931;DHT22;26635;-35.248;149.138;2023-02-15T01:18:30;26.50;54.70
39931;DHT22;26635;-35.248;149.138;2023-02-15T01:21:08;26.70;54.80
39931;DHT22;26635;-35.248;149.138;2023-02-15T01:23:38;26.80;53.10
39931;DHT22;26635;-35.248;149.138;2023-02-15T01:26:09;26.90;54.40
39931;DHT22;26635;-35.248;149.138;2023-02-15T01:28:40;27.10;51.80
39931;DHT22;26635;-35.248;149.138;2023-02-15T01:31:21;27.00;52.20
39931;DHT22;26635;-35.248;149.138;2023-02-15T01:33:52;27.00;52.20
39931;DHT22;26635;-35.248;149.138;2023-02-15T01:36:23;26.90;52.30
39931;DHT22;26635;-35.248;149.138;2023-02-15T01:38:53;26.70;52.70
39931;DHT22;26635;-35.248;149.138;2023-02-15T01:41:24;26.70;52.70
39931;DHT22;26635;-35.248;149.138;2023-02-15T01:43:56;26.90;54.00
39931;DHT22;26635;-35.248;149.138;2023-02-15T01:46:57;27.00;52.60
39931;DHT22;26635;-35.248;149.138;2023-02-15T01:49:27;27.00;52.60
39931;DHT22;26635;-35.248;149.138;2023-02-15T01:51:57;27.00;52.40
39931;DHT22;26635;-35.248;149.138;2023-02-15T01:54:33;26.80;52.80
39931;DHT22;26635;-35.248;149.138;2023-02-15T01:57:13;26.50;52.10
39931;DHT22;26635;-35.248;149.138;2023-02-15T01:59:49;26.30;54.00
39931;DHT22;26635;-35.248;149.138;2023-02-15T02:02:22;26.30;55.40
39931;DHT22;26635;-35.248;149.138;2023-02-15T02:04:59;26.40;54.40
39931;DHT22;26635;-35.248;149.138;2023-02-15T02:07:38;26.50;53.40
39931;DHT22;26635;-35.248;149.138;2023-02-15T02:10:12;26.30;52.90
39931;DHT22;26635;-35.248;149.138;2023-02-15T02:12:47;26.20;54.10
39931;DHT22;26635;-35.248;149.138;2023-02-15T02:15:23;26.30;54.20
39931;DHT22;26635;-35.248;149.138;2023-02-15T02:18:08;26.50;53.30
39931;DHT22;26635;-35.248;149.138;2023-02-15T02:35:19;27.30;50.10
39931;DHT22;26635;-35.248;149.138;2023-02-15T02:41:12;27.50;49.80
39931;DHT22;26635;-35.248;149.138;2023-02-15T02:43:47;27.70;50.50
39931;DHT22;26635;-35.248;149.138;2023-02-15T02:46:37;27.80;48.90
39931;DHT22;26635;-35.248;149.138;2023-02-15T02:49:09;27.90;50.00
39931;DHT22;26635;-35.248;149.138;2023-02-15T02:51:41;27.90;47.00
39931;DHT22;26635;-35.248;149.138;2023-02-15T02:54:14;27.90;48.30
39931;DHT22;26635;-35.248;149.138;2023-02-15T02:56:47;28.00;48.40
39931;DHT22;26635;-35.248;149.138;2023-02-15T02:59:27;27.90;46.60
39931;DHT22;26635;-35.248;149.138;2023-02-15T03:02:10;27.80;48.00
39931;DHT22;26635;-35.248;149.138;2023-02-15T03:04:49;27.80;48.20
39931;DHT22;26635;-35.248;149.138;2023-02-15T03:07:29;27.70;48.80
39931;DHT22;26635;-35.248;149.138;2023-02-15T03:10:03;27.70;47.60
39931;DHT22;26635;-35.248;149.138;2023-02-15T03:12:39;27.80;47.00
39931;DHT22;26635;-35.248;149.138;2023-02-15T03:15:20;27.80;48.30
39931;DHT22;26635;-35.248;149.138;2023-02-15T03:17:56;27.90;47.40
39931;DHT22;26635;-35.248;149.138;2023-02-15T03:20:31;28.00;47.50
39931;DHT22;26635;-35.248;149.138;2023-02-15T03:23:11;28.10;47.30
39931;DHT22;26635;-35.248;149.138;2023-02-15T03:25:50;28.30;47.50
39931;DHT22;26635;-35.248;149.138;2023-02-15T03:28:29;28.40;47.90
39931;DHT22;26635;-35.248;149.138;2023-02-15T03:31:05;28.50;47.40
39931;DHT22;26635;-35.248;149.138;2023-02-15T03:33:42;28.50;46.50
39931;DHT22;26635;-35.248;149.138;2023-02-15T03:42:23;28.20;47.10
39931;DHT22;26635;-35.248;149.138;2023-02-15T03:45:05;28.30;47.30
39931;DHT22;26635;-35.248;149.138;2023-02-15T03:47:43;28.30;48.30
39931;DHT22;26635;-35.248;149.138;2023-02-15T03:50:29;28.20;47.50
39931;DHT22;26635;-35.248;149.138;2023-02-15T03:53:24;28.20;47.50
39931;DHT22;26635;-35.248;149.138;2023-02-15T03:55:55;28.20;46.50
39931;DHT22;26635;-35.248;149.138;2023-02-15T03:58:27;28.30;45.60
39931;DHT22;26635;-35.248;149.138;2023-02-15T04:04:47;28.30;46.40
39931;DHT22;26635;-35.248;149.138;2023-02-15T04:07:18;28.40;47.20
39931;DHT22;26635;-35.248;149.138;2023-02-15T04:09:49;28.40;47.30
39931;DHT22;26635;-35.248;149.138;2023-02-15T04:12:37;28.30;47.80
39931;DHT22;26635;-35.248;149.138;2023-02-15T04:15:12;28.20;47.30
39931;DHT22;26635;-35.248;149.138;2023-02-15T04:18:03;28.30;46.60
39931;DHT22;26635;-35.248;149.138;2023-02-15T04:20:34;28.30;47.30
39931;DHT22;26635;-35.248;149.138;2023-02-15T04:23:22;28.30;46.10
39931;DHT22;26635;-35.248;149.138;2023-02-15T04:26:11;28.30;46.30
39931;DHT22;26635;-35.248;149.138;2023-02-15T04:28:42;28.10;45.80
39931;DHT22;26635;-35.248;149.138;2023-02-15T04:31:13;28.00;46.10
39931;DHT22;26635;-35.248;149.138;2023-02-15T04:33:45;27.90;46.10
39931;DHT22;26635;-35.248;149.138;2023-02-15T04:36:17;27.80;46.50
39931;DHT22;26635;-35.248;149.138;2023-02-15T04:38:48;27.80;48.30
39931;DHT22;26635;-35.248;149.138;2023-02-15T04:41:21;27.80;49.30
39931;DHT22;26635;-35.248;149.138;2023-02-15T04:43:54;27.80;48.90
39931;DHT22;26635;-35.248;149.138;2023-02-15T04:46:25;27.90;47.80
39931;DHT22;26635;-35.248;149.138;2023-02-15T04:48:55;27.80;45.60
39931;DHT22;26635;-35.248;149.138;2023-02-15T04:51:26;27.70;46.90
39931;DHT22;26635;-35.248;149.138;2023-02-15T04:53:57;27.70;47.20
39931;DHT22;26635;-35.248;149.138;2023-02-15T04:56:28;27.70;47.60
39931;DHT22;26635;-35.248;149.138;2023-02-15T04:59:01;27.70;49.00
39931;DHT22;26635;-35.248;149.138;2023-02-15T05:01:32;27.70;47.20
39931;DHT22;26635;-35.248;149.138;2023-02-15T05:04:04;27.70;47.60
39931;DHT22;26635;-35.248;149.138;2023-02-15T05:06:36;27.70;48.20
39931;DHT22;26635;-35.248;149.138;2023-02-15T05:09:07;27.60;47.00
39931;DHT22;26635;-35.248;149.138;2023-02-15T05:11:40;27.60;46.60
39931;DHT22;26635;-35.248;149.138;2023-02-15T05:14:11;27.60;47.40
39931;DHT22;26635;-35.248;149.138;2023-02-15T05:16:41;27.50;47.30
39931;DHT22;26635;-35.248;149.138;2023-02-15T05:19:12;27.60;48.10
39931;DHT22;26635;-35.248;149.138;2023-02-15T05:21:43;27.60;48.30
39931;DHT22;26635;-35.248;149.138;2023-02-15T05:24:13;27.60;48.20
39931;DHT22;26635;-35.248;149.138;2023-02-15T05:27:02;27.50;47.50
39931;DHT22;26635;-35.248;149.138;2023-02-15T05:29:51;27.50;48.00
39931;DHT22;26635;-35.248;149.138;2023-02-15T05:32:22;27.50;47.70
39931;DHT22;26635;-35.248;149.138;2023-02-15T05:34:54;27.50;46.80
39931;DHT22;26635;-35.248;149.138;2023-02-15T05:37:24;27.50;47.50
39931;DHT22;26635;-35.248;149.138;2023-02-15T05:39:55;27.50;46.50
39931;DHT22;26635;-35.248;149.138;2023-02-15T05:42:26;27.50;46.50
39931;DHT22;26635;-35.248;149.138;2023-02-15T05:45:01;27.40;47.90
39931;DHT22;26635;-35.248;149.138;2023-02-15T05:47:35;27.40;46.90
39931;DHT22;26635;-35.248;149.138;2023-02-15T05:50:07;27.30;47.30
39931;DHT22;26635;-35.248;149.138;2023-02-15T05:52:38;27.30;47.50
39931;DHT22;26635;-35.248;149.138;2023-02-15T05:55:11;27.30;47.10
39931;DHT22;26635;-35.248;149.138;2023-02-15T05:57:42;27.30;46.70
39931;DHT22;26635;-35.248;149.138;2023-02-15T06:00:13;27.30;46.90
39931;DHT22;26635;-35.248;149.138;2023-02-15T06:02:44;27.30;46.90
39931;DHT22;26635;-35.248;149.138;2023-02-15T06:05:15;27.40;45.10
39931;DHT22;26635;-35.248;149.138;2023-02-15T06:07:46;27.40;46.30
39931;DHT22;26635;-35.248;149.138;2023-02-15T06:10:18;27.30;46.00
39931;DHT22;26635;-35.248;149.138;2023-02-15T06:12:48;27.20;45.80
39931;DHT22;26635;-35.248;149.138;2023-02-15T06:15:19;27.10;46.70
39931;DHT22;26635;-35.248;149.138;2023-02-15T06:17:50;27.00;45.20
39931;DHT22;26635;-35.248;149.138;2023-02-15T06:20:22;27.00;46.00
39931;DHT22;26635;-35.248;149.138;2023-02-15T06:22:54;26.90;46.20
39931;DHT22;26635;-35.248;149.138;2023-02-15T06:25:24;26.80;46.40
39931;DHT22;26635;-35.248;149.138;2023-02-15T06:27:55;26.70;46.00
39931;DHT22;26635;-35.248;149.138;2023-02-15T06:30:25;26.70;45.90
39931;DHT22;26635;-35.248;149.138;2023-02-15T06:32:56;26.70;46.20
39931;DHT22;26635;-35.248;149.138;2023-02-15T06:35:27;26.70;46.60
39931;DHT22;26635;-35.248;149.138;2023-02-15T06:37:59;26.60;46.30
39931;DHT22;26635;-35.248;149.138;2023-02-15T06:40:30;26.60;46.90
39931;DHT22;26635;-35.248;149.138;2023-02-15T06:43:01;26.60;46.30
39931;DHT22;26635;-35.248;149.138;2023-02-15T06:45:32;26.50;44.60
39931;DHT22;26635;-35.248;149.138;2023-02-15T06:48:02;26.50;45.40
39931;DHT22;26635;-35.248;149.138;2023-02-15T06:50:34;26.50;46.10
39931;DHT22;26635;-35.248;149.138;2023-02-15T06:53:05;26.50;45.90
39931;DHT22;26635;-35.248;149.138;2023-02-15T06:55:35;26.40;47.10
39931;DHT22;26635;-35.248;149.138;2023-02-15T06:58:08;26.40;48.50
39931;DHT22;26635;-35.248;149.138;2023-02-15T07:00:39;26.30;47.20
39931;DHT22;26635;-35.248;149.138;2023-02-15T07:03:09;26.30;47.00
39931;DHT22;26635;-35.248;149.138;2023-02-15T07:05:43;26.30;46.60
39931;DHT22;26635;-35.248;149.138;2023-02-15T07:08:15;26.20;46.90
39931;DHT22;26635;-35.248;149.138;2023-02-15T07:10:54;26.20;48.10
39931;DHT22;26635;-35.248;149.138;2023-02-15T07:13:45;26.10;47.40
39931;DHT22;26635;-35.248;149.138;2023-02-15T07:16:18;26.10;47.50
39931;DHT22;26635;-35.248;149.138;2023-02-15T07:18:49;26.10;46.10
39931;DHT22;26635;-35.248;149.138;2023-02-15T07:21:20;26.10;47.20
39931;DHT22;26635;-35.248;149.138;2023-02-15T07:23:51;26.10;47.40
39931;DHT22;26635;-35.248;149.138;2023-02-15T07:26:24;26.10;47.50
39931;DHT22;26635;-35.248;149.138;2023-02-15T07:28:56;26.10;48.60
39931;DHT22;26635;-35.248;149.138;2023-02-15T07:31:26;26.00;49.00
39931;DHT22;26635;-35.248;149.138;2023-02-15T07:34:00;26.00;47.90
39931;DHT22;26635;-35.248;149.138;2023-02-15T07:36:39;25.90;47.90
39931;DHT22;26635;-35.248;149.138;2023-02-15T07:39:11;25.90;47.60
39931;DHT22;26635;-35.248;149.138;2023-02-15T07:41:41;25.90;47.80
39931;DHT22;26635;-35.248;149.138;2023-02-15T07:44:13;25.80;47.00
39931;DHT22;26635;-35.248;149.138;2023-02-15T07:46:44;25.80;47.10
39931;DHT22;26635;-35.248;149.138;2023-02-15T07:49:15;25.80;47.20
39931;DHT22;26635;-35.248;149.138;2023-02-15T07:51:46;25.80;46.90
39931;DHT22;26635;-35.248;149.138;2023-02-15T07:54:17;25.80;46.90
39931;DHT22;26635;-35.248;149.138;2023-02-15T07:56:48;25.70;47.20
39931;DHT22;26635;-35.248;149.138;2023-02-15T07:59:21;25.70;47.40
39931;DHT22;26635;-35.248;149.138;2023-02-15T08:01:51;25.70;46.50
39931;DHT22;26635;-35.248;149.138;2023-02-15T08:04:24;25.60;46.40
39931;DHT22;26635;-35.248;149.138;2023-02-15T08:06:55;25.60;46.30
39931;DHT22;26635;-35.248;149.138;2023-02-15T08:09:25;25.60;47.10
39931;DHT22;26635;-35.248;149.138;2023-02-15T08:11:56;25.50;47.80
39931;DHT22;26635;-35.248;149.138;2023-02-15T08:14:27;25.50;48.10
39931;DHT22;26635;-35.248;149.138;2023-02-15T08:17:00;25.40;48.00
39931;DHT22;26635;-35.248;149.138;2023-02-15T08:19:35;25.30;48.50
39931;DHT22;26635;-35.248;149.138;2023-02-15T08:22:07;25.30;48.80
39931;DHT22;26635;-35.248;149.138;2023-02-15T08:24:41;25.20;48.50
39931;DHT22;26635;-35.248;149.138;2023-02-15T08:27:11;25.10;49.90
39931;DHT22;26635;-35.248;149.138;2023-02-15T08:29:42;25.00;50.70
39931;DHT22;26635;-35.248;149.138;2023-02-15T08:32:13;24.90;50.30
39931;DHT22;26635;-35.248;149.138;2023-02-15T08:34:44;24.90;52.00
39931;DHT22;26635;-35.248;149.138;2023-02-15T08:37:16;24.80;52.30
39931;DHT22;26635;-35.248;149.138;2023-02-15T08:39:47;24.80;51.50
39931;DHT22;26635;-35.248;149.138;2023-02-15T08:42:20;24.70;51.10
39931;DHT22;26635;-35.248;149.138;2023-02-15T08:44:53;24.60;50.50
39931;DHT22;26635;-35.248;149.138;2023-02-15T08:47:24;24.60;51.00
39931;DHT22;26635;-35.248;149.138;2023-02-15T08:49:54;24.50;51.20
39931;DHT22;26635;-35.248;149.138;2023-02-15T08:52:25;24.50;51.30
39931;DHT22;26635;-35.248;149.138;2023-02-15T08:54:56;24.40;51.10
39931;DHT22;26635;-35.248;149.138;2023-02-15T08:57:27;24.40;51.60
39931;DHT22;26635;-35.248;149.138;2023-02-15T08:59:58;24.30;51.40
39931;DHT22;26635;-35.248;149.138;2023-02-15T09:02:31;24.20;51.80
39931;DHT22;26635;-35.248;149.138;2023-02-15T09:05:02;24.20;50.60
39931;DHT22;26635;-35.248;149.138;2023-02-15T09:07:33;24.20;50.50
39931;DHT22;26635;-35.248;149.138;2023-02-15T09:10:04;24.10;50.60
39931;DHT22;26635;-35.248;149.138;2023-02-15T09:12:36;24.00;51.60
39931;DHT22;26635;-35.248;149.138;2023-02-15T09:15:08;24.00;54.60
39931;DHT22;26635;-35.248;149.138;2023-02-15T09:17:39;23.90;58.40
39931;DHT22;26635;-35.248;149.138;2023-02-15T09:20:10;23.90;60.80
39931;DHT22;26635;-35.248;149.138;2023-02-15T09:22:40;23.80;63.30
39931;DHT22;26635;-35.248;149.138;2023-02-15T09:25:11;23.80;65.40
39931;DHT22;26635;-35.248;149.138;2023-02-15T09:27:43;23.70;66.00
39931;DHT22;26635;-35.248;149.138;2023-02-15T09:30:15;23.60;66.70
39931;DHT22;26635;-35.248;149.138;2023-02-15T09:32:46;23.60;67.20
39931;DHT22;26635;-35.248;149.138;2023-02-15T09:35:17;23.50;67.80
39931;DHT22;26635;-35.248;149.138;2023-02-15T09:37:48;23.40;68.20
39931;DHT22;26635;-35.248;149.138;2023-02-15T09:40:19;23.30;68.50
39931;DHT22;26635;-35.248;149.138;2023-02-15T09:48:58;23.20;69.80
39931;DHT22;26635;-35.248;149.138;2023-02-15T09:57:23;23.00;70.90
39931;DHT22;26635;-35.248;149.138;2023-02-15T10:11:17;22.80;71.10
39931;DHT22;26635;-35.248;149.138;2023-02-15T10:28:19;22.50;72.40
39931;DHT22;26635;-35.248;149.138;2023-02-15T10:30:51;22.40;73.00
39931;DHT22;26635;-35.248;149.138;2023-02-15T10:33:41;22.40;72.90
39931;DHT22;26635;-35.248;149.138;2023-02-15T10:45:47;22.30;73.40
39931;DHT22;26635;-35.248;149.138;2023-02-15T10:50:47;22.20;73.50
39931;DHT22;26635;-35.248;149.138;2023-02-15T10:53:50;22.20;73.50
39931;DHT22;26635;-35.248;149.138;2023-02-15T10:59:42;22.10;73.70
39931;DHT22;26635;-35.248;149.138;2023-02-15T11:05:16;22.00;72.50
39931;DHT22;26635;-35.248;149.138;2023-02-15T11:07:54;21.90;72.90
39931;DHT22;26635;-35.248;149.138;2023-02-15T11:10:49;21.90;72.40
39931;DHT22;26635;-35.248;149.138;2023-02-15T11:13:25;22.00;73.00
39931;DHT22;26635;-35.248;149.138;2023-02-15T11:15:59;21.90;73.20
39931;DHT22;26635;-35.248;149.138;2023-02-15T11:23:47;21.90;74.40
39931;DHT22;26635;-35.248;149.138;2023-02-15T11:32:50;21.70;74.50
39931;DHT22;26635;-35.248;149.138;2023-02-15T11:34:53;21.60;74.30
39931;DHT22;26635;-35.248;149.138;2023-02-15T11:41:13;21.50;74.70
39931;DHT22;26635;-35.248;149.138;2023-02-15T11:43:54;21.50;74.90
39931;DHT22;26635;-35.248;149.138;2023-02-15T11:46:28;21.40;75.10
39931;DHT22;26635;-35.248;149.138;2023-02-15T11:48:59;21.40;75.60
39931;DHT22;26635;-35.248;149.138;2023-02-15T11:51:30;21.40;75.70
39931;DHT22;26635;-35.248;149.138;2023-02-15T11:54:07;21.40;76.50
39931;DHT22;26635;-35.248;149.138;2023-02-15T11:56:38;21.30;76.00
39931;DHT22;26635;-35.248;149.138;2023-02-15T11:59:27;21.30;76.40
39931;DHT22;26635;-35.248;149.138;2023-02-15T12:01:59;21.30;76.30
39931;DHT22;26635;-35.248;149.138;2023-02-15T12:04:40;21.30;76.40
39931;DHT22;26635;-35.248;149.138;2023-02-15T12:12:47;21.20;77.10
39931;DHT22;26635;-35.248;149.138;2023-02-15T12:15:30;21.20;77.30
39931;DHT22;26635;-35.248;149.138;2023-02-15T12:18:03;21.20;77.40
39931;DHT22;26635;-35.248;149.138;2023-02-15T12:20:34;21.20;77.40
39931;DHT22;26635;-35.248;149.138;2023-02-15T12:23:12;21.20;77.90
39931;DHT22;26635;-35.248;149.138;2023-02-15T12:25:50;21.10;77.90
39931;DHT22;26635;-35.248;149.138;2023-02-15T12:28:34;21.10;78.00
39931;DHT22;26635;-35.248;149.138;2023-02-15T12:34:02;21.10;78.40
39931;DHT22;26635;-35.248;149.138;2023-02-15T12:36:47;21.00;78.30
39931;DHT22;26635;-35.248;149.138;2023-02-15T12:39:29;21.00;78.80
39931;DHT22;26635;-35.248;149.138;2023-02-15T12:42:03;20.90;78.30
39931;DHT22;26635;-35.248;149.138;2023-02-15T12:44:36;20.90;78.30
39931;DHT22;26635;-35.248;149.138;2023-02-15T12:47:19;20.80;79.10
39931;DHT22;26635;-35.248;149.138;2023-02-15T12:50:22;20.70;78.90
39931;DHT22;26635;-35.248;149.138;2023-02-15T12:53:19;20.70;79.30
39931;DHT22;26635;-35.248;149.138;2023-02-15T12:56:04;20.60;79.40
39931;DHT22;26635;-35.248;149.138;2023-02-15T12:58:42;20.50;79.80
39931;DHT22;26635;-35.248;149.138;2023-02-15T13:01:18;20.50;79.90
39931;DHT22;26635;-35.248;149.138;2023-02-15T13:04:06;20.50;80.20
39931;DHT22;26635;-35.248;149.138;2023-02-15T13:06:49;20.40;80.00
39931;DHT22;26635;-35.248;149.138;2023-02-15T13:09:35;20.30;80.30
39931;DHT22;26635;-35.248;149.138;2023-02-15T13:12:29;20.30;80.10
39931;DHT22;26635;-35.248;149.138;2023-02-15T13:15:21;20.30;80.20
39931;DHT22;26635;-35.248;149.138;2023-02-15T13:17:51;20.20;80.30
39931;DHT22;26635;-35.248;149.138;2023-02-15T13:20:23;20.10;80.60
39931;DHT22;26635;-35.248;149.138;2023-02-15T13:23:05;20.10;80.90
39931;DHT22;26635;-35.248;149.138;2023-02-15T13:25:45;20.00;81.50
39931;DHT22;26635;-35.248;149.138;2023-02-15T13:28:25;20.00;81.20
39931;DHT22;26635;-35.248;149.138;2023-02-15T13:30:57;19.90;81.40
39931;DHT22;26635;-35.248;149.138;2023-02-15T13:33:38;19.90;81.60
39931;DHT22;26635;-35.248;149.138;2023-02-15T13:36:24;19.80;81.70
39931;DHT22;26635;-35.248;149.138;2023-02-15T13:39:46;19.80;82.30
39931;DHT22;26635;-35.248;149.138;2023-02-15T13:55:51;19.50;83.50
39931;DHT22;26635;-35.248;149.138;2023-02-15T14:04:18;19.50;84.20
39931;DHT22;26635;-35.248;149.138;2023-02-15T14:07:16;19.50;83.90
39931;DHT22;26635;-35.248;149.138;2023-02-15T14:15:56;19.40;84.10
39931;DHT22;26635;-35.248;149.138;2023-02-15T14:29:35;19.30;84.80
39931;DHT22;26635;-35.248;149.138;2023-02-15T14:35:00;19.20;85.30
39931;DHT22;26635;-35.248;149.138;2023-02-15T14:49:32;19.00;86.60
39931;DHT22;26635;-35.248;149.138;2023-02-15T14:52:04;18.90;86.00
39931;DHT22;26635;-35.248;149.138;2023-02-15T15:00:00;18.80;87.10
39931;DHT22;26635;-35.248;149.138;2023-02-15T15:02:51;18.70;86.70
39931;DHT22;26635;-35.248;149.138;2023-02-15T15:05:49;18.60;86.80
39931;DHT22;26635;-35.248;149.138;2023-02-15T15:08:47;18.60;86.40
39931;DHT22;26635;-35.248;149.138;2023-02-15T15:14:36;18.50;87.90
39931;DHT22;26635;-35.248;149.138;2023-02-15T15:17:04;18.40;88.20
39931;DHT22;26635;-35.248;149.138;2023-02-15T15:22:24;18.30;87.70
39931;DHT22;26635;-35.248;149.138;2023-02-15T15:28:07;18.20;88.20
39931;DHT22;26635;-35.248;149.138;2023-02-15T15:50:41;18.00;90.00
39931;DHT22;26635;-35.248;149.138;2023-02-15T15:53:23;18.00;90.10
39931;DHT22;26635;-35.248;149.138;2023-02-15T15:56:01;18.00;90.00
39931;DHT22;26635;-35.248;149.138;2023-02-15T15:58:35;17.90;90.10
39931;DHT22;26635;-35.248;149.138;2023-02-15T16:01:10;17.90;90.00
39931;DHT22;26635;-35.248;149.138;2023-02-15T16:03:53;17.80;90.10
39931;DHT22;26635;-35.248;149.138;2023-02-15T16:06:35;17.80;90.20
39931;DHT22;26635;-35.248;149.138;2023-02-15T16:09:15;17.80;90.30
39931;DHT22;26635;-35.248;149.138;2023-02-15T16:11:50;17.70;90.60
39931;DHT22;26635;-35.248;149.138;2023-02-15T16:14:37;17.70;90.60
39931;DHT22;26635;-35.248;149.138;2023-02-15T16:17:17;17.70;90.50
39931;DHT22;26635;-35.248;149.138;2023-02-15T16:20:00;17.60;90.10
39931;DHT22;26635;-35.248;149.138;2023-02-15T16:22:33;17.60;90.20
39931;DHT22;26635;-35.248;149.138;2023-02-15T16:25:41;17.50;90.10
39931;DHT22;26635;-35.248;149.138;2023-02-15T16:28:16;17.50;90.40
39931;DHT22;26635;-35.248;149.138;2023-02-15T16:31:06;17.50;90.60
39931;DHT22;26635;-35.248;149.138;2023-02-15T16:33:41;17.50;90.50
39931;DHT22;26635;-35.248;149.138;2023-02-15T16:36:26;17.50;90.50
39931;DHT22;26635;-35.248;149.138;2023-02-15T16:41:31;17.40;91.30
39931;DHT22;26635;-35.248;149.138;2023-02-15T16:44:17;17.40;90.50
39931;DHT22;26635;-35.248;149.138;2023-02-15T16:46:51;17.40;90.60
39931;DHT22;26635;-35.248;149.138;2023-02-15T16:49:27;17.30;90.70
39931;DHT22;26635;-35.248;149.138;2023-02-15T16:52:03;17.30;90.40
39931;DHT22;26635;-35.248;149.138;2023-02-15T16:54:42;17.30;90.10
39931;DHT22;26635;-35.248;149.138;2023-02-15T16:57:21;17.30;90.30
39931;DHT22;26635;-35.248;149.138;2023-02-15T16:59:57;17.30;90.50
39931;DHT22;26635;-35.248;149.138;2023-02-15T17:02:30;17.30;90.50
39931;DHT22;26635;-35.248;149.138;2023-02-15T17:05:22;17.30;90.40
39931;DHT22;26635;-35.248;149.138;2023-02-15T17:10:39;17.30;90.40
39931;DHT22;26635;-35.248;149.138;2023-02-15T17:13:18;17.30;90.60
39931;DHT22;26635;-35.248;149.138;2023-02-15T17:18:43;17.20;90.60
39931;DHT22;26635;-35.248;149.138;2023-02-15T17:21:20;17.20;90.70
39931;DHT22;26635;-35.248;149.138;2023-02-15T17:23:52;17.20;90.50
39931;DHT22;26635;-35.248;149.138;2023-02-15T17:26:31;17.20;90.60
39931;DHT22;26635;-35.248;149.138;2023-02-15T17:29:22;17.10;91.00
39931;DHT22;26635;-35.248;149.138;2023-02-15T17:31:56;17.10;90.80
39931;DHT22;26635;-35.248;149.138;2023-02-15T17:40:28;17.10;90.80
39931;DHT22;26635;-35.248;149.138;2023-02-15T17:42:59;17.10;90.80
39931;DHT22;26635;-35.248;149.138;2023-02-15T17:45:44;17.10;91.10
39931;DHT22;26635;-35.248;149.138;2023-02-15T17:50:52;17.00;90.60
39931;DHT22;26635;-35.248;149.138;2023-02-15T17:53:23;17.00;90.60
39931;DHT22;26635;-35.248;149.138;2023-02-15T17:55:57;17.00;90.80
39931;DHT22;26635;-35.248;149.138;2023-02-15T17:58:27;17.00;90.70
39931;DHT22;26635;-35.248;149.138;2023-02-15T18:01:00;16.90;90.80
39931;DHT22;26635;-35.248;149.138;2023-02-15T18:03:52;16.90;91.10
39931;DHT22;26635;-35.248;149.138;2023-02-15T18:06:43;16.80;91.00
39931;DHT22;26635;-35.248;149.138;2023-02-15T18:09:32;16.80;90.90
39931;DHT22;26635;-35.248;149.138;2023-02-15T18:12:32;16.80;91.30
39931;DHT22;26635;-35.248;149.138;2023-02-15T18:15:04;16.80;91.40
39931;DHT22;26635;-35.248;149.138;2023-02-15T18:17:43;16.70;91.40
39931;DHT22;26635;-35.248;149.138;2023-02-15T18:20:23;16.70;91.10
39931;DHT22;26635;-35.248;149.138;2023-02-15T18:22:57;16.70;91.00
39931;DHT22;26635;-35.248;149.138;2023-02-15T18:25:27;16.70;91.20
39931;DHT22;26635;-35.248;149.138;2023-02-15T18:27:58;16.60;91.00
39931;DHT22;26635;-35.248;149.138;2023-02-15T18:30:30;16.60;90.90
39931;DHT22;26635;-35.248;149.138;2023-02-15T18:33:02;16.60;91.20
39931;DHT22;26635;-35.248;149.138;2023-02-15T18:35:33;16.60;91.20
39931;DHT22;26635;-35.248;149.138;2023-02-15T18:38:04;16.60;91.30
39931;DHT22;26635;-35.248;149.138;2023-02-15T18:40:34;16.50;91.00
39931;DHT22;26635;-35.248;149.138;2023-02-15T18:43:08;16.50;91.20
39931;DHT22;26635;-35.248;149.138;2023-02-15T18:45:38;16.50;91.40
39931;DHT22;26635;-35.248;149.138;2023-02-15T18:48:10;16.50;91.50
39931;DHT22;26635;-35.248;149.138;2023-02-15T18:50:42;16.50;91.30
39931;DHT22;26635;-35.248;149.138;2023-02-15T18:53:19;16.50;91.60
39931;DHT22;26635;-35.248;149.138;2023-02-15T18:55:51;16.50;91.60
39931;DHT22;26635;-35.248;149.138;2023-02-15T18:58:22;16.40;91.60
39931;DHT22;26635;-35.248;149.138;2023-02-15T19:00:54;16.50;91.60
39931;DHT22;26635;-35.248;149.138;2023-02-15T19:03:25;16.50;91.40
39931;DHT22;26635;-35.248;149.138;2023-02-15T19:05:56;16.40;91.30
39931;DHT22;26635;-35.248;149.138;2023-02-15T19:08:27;16.40;91.30